TLL weather

Lennart Meri Tallinn Airport
Tallinn, Harju County, Estonia

Public forecast

Using degrees Celsius for public forecast. Weather courtesy of forecast.io.

METAR (pilot weather report)

Retrieved 2019/03/20 02:20 UTC (23 minutes ago):

EETN 200220Z 27014KT 8000 -SHSN SCT008 BKN013 SCT017CB M00/M01 Q1019 RESHSN R08/290195

TAF (pilot weather forecast)

Forecast is more than 12 hours old.

Retrieved 2019/03/19 00:12 UTC (1 day ago):

TAF TAF EETN 192310Z 2000/2024 28012KT 9999 BKN012 TEMPO 2000/2006 BKN005 BECMG 2008/2010 21014KT PROB40 TEMPO 2010/2013 19015G25KT TEMPO 2013/2018 1500 SHSNRA BKN003 BKN010 SCT015CB BECMG 2018/2020 28012KT